Time;durP1;ratioP1;P1;durP2;ratioP2;P2;SDS_P1;SDS_P2;PMS_P1;PMS_P2;Temp;Humidity;BMP_temperature;BMP_pressure;BME280_temperature;BME280_humidity;BME280_pressure;Samples;Min_cycle;Max_cycle;Signal;HPM_P1;HPM_P2
2023/07/10 00:01:27;;;;;;;9.93;7.35;;;;;;;20.30;100.00;101629.47;4984552;28;20659;-48
2023/07/10 00:03:54;;;;;;;11.77;7.80;;;;;;;20.31;100.00;101608.56;4995594;28;20175;-47
2023/07/10 00:06:20;;;;;;;10.45;8.27;;;;;;;20.29;100.00;101591.47;4991918;28;20173;-48
2023/07/10 00:08:45;;;;;;;10.57;7.85;;;;;;;20.31;100.00;101567.72;4981901;28;20579;-47
2023/07/10 00:11:17;;;;;;;10.15;8.07;;;;;;;19.99;100.00;101573.50;4985777;28;20191;-50
2023/07/10 00:13:44;;;;;;;12.50;8.30;;;;;;;19.86;100.00;101581.59;4986576;28;20590;-50
2023/07/10 00:16:19;;;;;;;10.35;8.50;;;;;;;19.81;100.00;101599.16;4990441;28;20192;-49
2023/07/10 00:18:46;;;;;;;11.05;9.23;;;;;;;19.90;100.00;101598.59;4994652;28;20191;-53
2023/07/10 00:21:11;;;;;;;10.85;9.48;;;;;;;19.79;100.00;101588.41;4990813;28;20219;-50
2023/07/10 00:23:37;;;;;;;8.95;7.95;;;;;;;19.84;100.00;101594.41;4985545;28;20197;-53
2023/07/10 00:26:17;;;;;;;13.98;9.18;;;;;;;19.68;100.00;101597.22;4992209;28;20271;-48
2023/07/10 00:28:43;;;;;;;12.27;8.60;;;;;;;19.69;100.00;101592.66;4985856;28;20189;-47
2023/07/10 00:31:09;;;;;;;14.90;8.75;;;;;;;19.67;100.00;101598.19;4978368;28;20173;-49
2023/07/10 00:33:34;;;;;;;9.45;8.18;;;;;;;19.80;100.00;101589.28;4990377;28;20196;-49
2023/07/10 00:36:02;;;;;;;13.82;8.50;;;;;;;19.74;100.00;101593.25;4984918;28;20237;-47
2023/07/10 00:38:31;;;;;;;14.30;8.63;;;;;;;19.68;100.00;101591.78;4975463;28;20195;-48
2023/07/10 00:41:03;;;;;;;11.55;8.60;;;;;;;19.79;100.00;101590.22;4992541;28;20169;-55
2023/07/10 00:43:36;;;;;;;12.80;8.93;;;;;;;19.61;100.00;101612.16;4983664;28;20571;-50
2023/07/10 00:46:15;;;;;;;13.88;9.65;;;;;;;19.61;100.00;101603.13;4991520;28;20204;-49
2023/07/10 00:49:30;;;;;;;10.40;8.95;;;;;;;19.68;100.00;101599.94;4990736;28;20212;-52
2023/07/10 00:52:13;;;;;;;9.88;8.38;;;;;;;19.80;100.00;101595.56;4962607;28;20196;-48
2023/07/10 00:54:44;;;;;;;11.38;7.78;;;;;;;19.92;100.00;101586.63;4988977;28;20524;-45
2023/07/10 00:57:15;;;;;;;10.68;8.38;;;;;;;19.90;100.00;101590.44;4992675;28;20165;-49
2023/07/10 00:59:42;;;;;;;8.30;6.93;;;;;;;20.01;100.00;101596.03;4991824;28;20223;-47
2023/07/10 01:02:07;;;;;;;9.45;8.10;;;;;;;19.90;100.00;101587.72;4966287;28;20186;-50
2023/07/10 01:04:39;;;;;;;9.38;7.75;;;;;;;19.91;100.00;101590.31;4978433;28;20205;-49
2023/07/10 01:07:10;;;;;;;9.75;8.75;;;;;;;19.67;100.00;101589.16;4985479;28;20192;-48
2023/07/10 01:09:38;;;;;;;13.18;8.90;;;;;;;19.55;100.00;101579.97;4988963;28;20180;-50
2023/07/10 01:12:05;;;;;;;9.15;8.20;;;;;;;19.68;100.00;101585.47;4987038;28;20199;-50
2023/07/10 01:14:34;;;;;;;9.23;8.32;;;;;;;19.62;100.00;101589.47;4981908;28;20271;-49
2023/07/10 01:17:04;;;;;;;10.20;9.10;;;;;;;19.49;100.00;101597.50;5006419;28;20391;-47
2023/07/10 01:19:31;;;;;;;13.15;8.60;;;;;;;19.52;100.00;101593.72;4979306;28;20535;-47
2023/07/10 01:21:56;;;;;;;14.20;9.02;;;;;;;19.52;100.00;101597.31;4976869;28;20544;-47
2023/07/10 01:24:22;;;;;;;8.70;7.80;;;;;;;19.67;100.00;101598.19;4988027;28;20197;-48
2023/07/10 01:26:47;;;;;;;11.55;8.15;;;;;;;19.74;100.00;101596.88;4987638;28;20176;-46
2023/07/10 01:29:26;;;;;;;9.10;7.72;;;;;;;19.73;100.00;101589.66;4983793;28;20225;-48
2023/07/10 01:31:54;;;;;;;9.48;8.35;;;;;;;19.74;100.00;101591.44;4981828;28;20292;-47
2023/07/10 01:34:23;;;;;;;8.50;7.70;;;;;;;19.54;100.00;101579.06;4981835;28;20196;-51
2023/07/10 01:36:50;;;;;;;9.35;8.18;;;;;;;19.51;100.00;101575.69;4984560;28;20180;-48
2023/07/10 01:39:15;;;;;;;11.75;8.43;;;;;;;19.49;100.00;101580.34;4983887;28;20231;-48
2023/07/10 01:41:43;;;;;;;8.88;7.30;;;;;;;19.52;100.00;101569.25;4985974;28;20181;-48
2023/07/10 01:44:19;;;;;;;8.35;7.30;;;;;;;19.54;100.00;101573.63;4995404;28;20318;-47
2023/07/10 01:46:44;;;;;;;7.20;6.45;;;;;;;19.63;100.00;101565.84;4989816;28;20219;-49
2023/07/10 01:49:10;;;;;;;8.80;7.93;;;;;;;19.26;100.00;101560.03;4988759;28;20205;-46
2023/07/10 01:51:36;;;;;;;7.72;7.05;;;;;;;19.40;100.00;101570.94;4993907;28;20649;-48
2023/07/10 01:54:05;;;;;;;8.73;7.82;;;;;;;19.21;100.00;101586.66;4987067;28;20257;-50
2023/07/10 01:56:32;;;;;;;8.35;7.53;;;;;;;19.31;100.00;101585.97;4996623;28;20189;-47
2023/07/10 01:58:57;;;;;;;9.88;8.70;;;;;;;18.74;100.00;101564.16;4981713;28;20663;-50
2023/07/10 02:01:23;;;;;;;9.18;8.25;;;;;;;18.86;100.00;101586.97;4989844;28;20275;-48
2023/07/10 02:03:49;;;;;;;9.50;8.40;;;;;;;18.80;100.00;101580.06;4996102;28;20659;-47
2023/07/10 02:06:15;;;;;;;9.52;7.47;;;;;;;18.94;100.00;101584.69;4990572;28;20172;-48
2023/07/10 02:08:41;;;;;;;10.63;8.13;;;;;;;19.08;100.00;101581.97;4987061;28;20201;-47
2023/07/10 02:11:06;;;;;;;9.95;8.70;;;;;;;19.13;100.00;101576.25;4979912;28;20575;-51
2023/07/10 02:13:31;;;;;;;8.80;7.90;;;;;;;19.14;100.00;101581.59;4989247;28;20181;-50
2023/07/10 02:16:02;;;;;;;8.40;7.60;;;;;;;19.16;100.00;101586.94;4995612;28;20205;-48
2023/07/10 02:18:28;;;;;;;13.70;8.68;;;;;;;19.15;100.00;101585.16;4975971;28;20556;-47
2023/07/10 02:20:53;;;;;;;11.63;8.45;;;;;;;19.04;100.00;101590.41;4982980;28;20263;-48
2023/07/10 02:23:19;;;;;;;8.55;7.68;;;;;;;19.02;100.00;101589.63;4990305;28;20174;-48
2023/07/10 02:25:45;;;;;;;8.48;7.55;;;;;;;19.12;100.00;101591.66;5004371;28;20307;-46
2023/07/10 02:28:10;;;;;;;8.40;7.10;;;;;;;19.22;100.00;101597.41;4979320;28;20204;-47
2023/07/10 02:30:38;;;;;;;8.38;7.55;;;;;;;19.12;100.00;101593.53;4987500;28;20193;-48
2023/07/10 02:33:04;;;;;;;7.38;6.63;;;;;;;19.20;100.00;101601.19;4989351;28;20276;-49
2023/07/10 02:35:30;;;;;;;8.43;7.45;;;;;;;19.18;100.00;101608.59;4979646;28;20215;-48
2023/07/10 02:37:57;;;;;;;10.20;8.50;;;;;;;19.04;100.00;101615.72;4984796;28;20173;-47
2023/07/10 02:40:23;;;;;;;8.30;7.40;;;;;;;19.19;100.00;101611.19;4990031;28;20193;-50
2023/07/10 02:42:48;;;;;;;12.20;8.88;;;;;;;18.64;100.00;101595.50;4988714;28;20189;-49
2023/07/10 02:45:14;;;;;;;11.02;8.77;;;;;;;18.41;100.00;101599.59;4984200;28;20287;-48
2023/07/10 02:47:40;;;;;;;9.00;8.10;;;;;;;18.70;100.00;101606.88;4988216;28;20676;-48
2023/07/10 02:50:08;;;;;;;8.82;8.02;;;;;;;18.83;100.00;101617.03;4983460;28;20345;-48
2023/07/10 02:52:34;;;;;;;10.00;9.00;;;;;;;18.83;100.00;101633.34;4983377;28;20638;-48
2023/07/10 02:54:59;;;;;;;10.43;9.38;;;;;;;18.89;100.00;101630.22;4982143;28;20206;-50
2023/07/10 02:57:24;;;;;;;10.70;9.32;;;;;;;18.68;100.00;101645.94;4986026;28;20419;-48
2023/07/10 02:59:50;;;;;;;10.57;9.57;;;;;;;18.77;100.00;101636.38;4994206;28;20266;-50
2023/07/10 03:02:16;;;;;;;11.05;9.95;;;;;;;18.75;100.00;101639.19;4991108;28;20184;-49
2023/07/10 03:04:42;;;;;;;10.90;9.18;;;;;;;18.87;100.00;101626.72;4988627;28;20213;-51
2023/07/10 03:07:07;;;;;;;9.23;8.43;;;;;;;18.98;100.00;101636.94;4994252;28;20205;-48
2023/07/10 03:09:33;;;;;;;9.48;8.57;;;;;;;18.86;100.00;101633.13;4984947;28;20194;-48
2023/07/10 03:11:58;;;;;;;10.20;9.10;;;;;;;18.86;100.00;101630.41;4990827;28;20304;-51
2023/07/10 03:14:24;;;;;;;10.52;9.50;;;;;;;18.78;100.00;101630.88;4988391;28;20247;-49
2023/07/10 03:16:49;;;;;;;10.00;8.95;;;;;;;18.66;100.00;101627.03;5008726;28;20185;-49
2023/07/10 03:19:15;;;;;;;9.23;8.32;;;;;;;18.83;100.00;101626.06;4993168;28;20161;-49
2023/07/10 03:21:40;;;;;;;8.90;8.00;;;;;;;18.98;100.00;101631.50;4988581;28;20184;-47
2023/07/10 03:24:06;;;;;;;8.80;8.02;;;;;;;19.02;100.00;101636.69;4989859;28;20696;-48
2023/07/10 03:26:31;;;;;;;9.50;8.65;;;;;;;18.97;100.00;101633.34;4985794;28;20186;-51
2023/07/10 03:29:09;;;;;;;10.25;9.27;;;;;;;18.97;100.00;101656.94;4993646;28;20204;-48
2023/07/10 03:31:35;;;;;;;10.27;9.35;;;;;;;18.85;100.00;101669.41;4986501;28;20205;-49
2023/07/10 03:34:01;;;;;;;13.88;10.60;;;;;;;18.84;100.00;101682.09;4976448;28;20181;-47
2023/07/10 03:36:27;;;;;;;11.95;10.70;;;;;;;18.90;100.00;101694.44;4984343;28;20272;-48
2023/07/10 03:38:52;;;;;;;15.10;11.48;;;;;;;18.79;100.00;101686.06;4990556;28;20196;-48
2023/07/10 03:41:18;;;;;;;16.05;12.13;;;;;;;18.84;100.00;101663.09;4982038;28;20229;-50
2023/07/10 03:43:43;;;;;;;14.82;12.27;;;;;;;18.88;100.00;101669.22;4978699;28;20208;-47
2023/07/10 03:46:11;;;;;;;15.55;12.00;;;;;;;18.96;100.00;101688.66;4983229;28;20217;-49
2023/07/10 03:48:36;;;;;;;17.88;12.10;;;;;;;18.90;100.00;101702.59;4987978;28;20551;-48
2023/07/10 03:51:02;;;;;;;19.67;14.30;;;;;;;18.77;100.00;101677.97;4979675;28;20244;-50
2023/07/10 03:53:28;;;;;;;17.17;13.68;;;;;;;18.76;100.00;101669.91;4984044;28;20249;-48
2023/07/10 03:55:55;;;;;;;14.90;13.35;;;;;;;18.84;100.00;101682.09;4992608;28;20213;-48
2023/07/10 03:58:28;;;;;;;20.90;12.57;;;;;;;18.82;100.00;101681.31;4988323;28;20185;-47
2023/07/10 04:00:55;;;;;;;18.70;12.60;;;;;;;18.88;100.00;101671.94;4981088;28;20185;-48
2023/07/10 04:03:24;;;;;;;17.17;13.45;;;;;;;18.84;100.00;101673.94;4981307;28;20686;-47
2023/07/10 04:05:52;;;;;;;14.40;13.00;;;;;;;18.92;100.00;101676.22;4982234;28;20221;-47
2023/07/10 04:08:21;;;;;;;14.43;12.68;;;;;;;18.94;100.00;101675.16;4986609;28;20198;-49
2023/07/10 04:10:48;;;;;;;18.08;13.63;;;;;;;18.89;100.00;101676.38;4979684;28;20189;-48
2023/07/10 04:13:14;;;;;;;16.10;13.93;;;;;;;18.86;100.00;101682.00;4983209;28;20189;-49
2023/07/10 04:15:39;;;;;;;21.42;14.40;;;;;;;18.86;100.00;101682.88;4992449;28;20207;-47
2023/07/10 04:18:05;;;;;;;17.10;12.93;;;;;;;18.95;100.00;101667.88;4990407;28;20224;-50
2023/07/10 04:20:30;;;;;;;16.42;14.32;;;;;;;18.94;100.00;101666.16;4980074;28;20193;-48
2023/07/10 04:22:56;;;;;;;26.13;15.98;;;;;;;18.81;100.00;101660.56;4983368;28;20178;-47
2023/07/10 04:25:21;;;;;;;16.40;13.65;;;;;;;18.98;100.00;101661.38;4992094;28;20203;-50
2023/07/10 04:27:47;;;;;;;22.30;15.15;;;;;;;18.96;100.00;101671.47;4984726;28;20568;-47
2023/07/10 04:30:12;;;;;;;19.42;14.93;;;;;;;18.86;100.00;101663.88;4986129;28;20180;-48
2023/07/10 04:32:38;;;;;;;20.10;14.02;;;;;;;19.04;100.00;101651.03;4992756;28;20193;-51
2023/07/10 04:35:04;;;;;;;16.05;13.13;;;;;;;19.11;100.00;101646.09;4985702;28;20583;-48
2023/07/10 04:37:29;;;;;;;17.77;13.70;;;;;;;19.11;100.00;101648.81;5000537;28;20187;-48
2023/07/10 04:39:55;;;;;;;17.65;14.05;;;;;;;19.17;100.00;101633.97;4978052;28;20197;-49
2023/07/10 04:42:20;;;;;;;18.15;13.85;;;;;;;19.10;100.00;101641.63;4984222;28;20230;-49
2023/07/10 04:44:45;;;;;;;15.38;13.80;;;;;;;19.20;100.00;101631.97;4989627;28;20744;-47
2023/07/10 04:47:11;;;;;;;16.58;13.90;;;;;;;19.13;100.00;101630.56;4980907;28;20234;-50
2023/07/10 04:49:36;;;;;;;14.90;13.38;;;;;;;19.24;100.00;101624.47;4975556;28;20297;-46
2023/07/10 04:52:02;;;;;;;21.50;12.95;;;;;;;19.25;100.00;101621.66;4984111;28;20178;-47
2023/07/10 04:54:28;;;;;;;19.45;14.48;;;;;;;19.29;100.00;101617.81;4991845;28;20209;-46
2023/07/10 04:56:53;;;;;;;17.98;14.30;;;;;;;19.37;100.00;101613.72;4981977;28;20189;-45
2023/07/10 04:59:18;;;;;;;15.55;12.38;;;;;;;19.40;100.00;101614.41;4976444;28;20275;-45
2023/07/10 05:01:44;;;;;;;20.33;13.73;;;;;;;19.40;100.00;101624.41;4987253;28;20188;-46
2023/07/10 05:04:09;;;;;;;14.38;12.55;;;;;;;19.36;100.00;101621.00;4991910;28;20203;-45
2023/07/10 05:06:37;;;;;;;14.23;11.38;;;;;;;19.43;100.00;101616.94;4984420;28;20618;-46
2023/07/10 05:09:03;;;;;;;15.15;13.13;;;;;;;19.41;100.00;101616.16;4984478;28;20279;-47
2023/07/10 05:11:30;;;;;;;15.85;13.75;;;;;;;19.37;100.00;101611.88;4989303;28;20637;-43
2023/07/10 05:13:56;;;;;;;17.10;13.07;;;;;;;19.42;100.00;101603.44;4985115;28;20199;-45
2023/07/10 05:16:22;;;;;;;21.27;13.68;;;;;;;19.48;100.00;101586.72;4980193;28;20231;-44
2023/07/10 05:18:48;;;;;;;17.90;13.00;;;;;;;19.55;100.00;101590.84;4978594;28;20655;-45
2023/07/10 05:21:14;;;;;;;18.88;12.20;;;;;;;19.63;100.00;101593.91;4987000;28;20207;-45
2023/07/10 05:23:39;;;;;;;16.23;12.85;;;;;;;19.61;100.00;101595.84;4983629;28;20196;-45
2023/07/10 05:26:09;;;;;;;16.50;13.27;;;;;;;19.49;100.00;101588.50;4980609;28;20204;-45
2023/07/10 05:28:36;;;;;;;15.35;12.70;;;;;;;19.43;100.00;101569.84;4990463;28;20209;-46
2023/07/10 05:31:03;;;;;;;19.77;12.80;;;;;;;19.41;100.00;101569.06;4994402;28;20188;-44
2023/07/10 05:33:29;;;;;;;18.38;13.55;;;;;;;19.43;100.00;101569.84;4990779;28;20603;-45
2023/07/10 05:35:58;;;;;;;16.85;13.80;;;;;;;19.46;100.00;101567.81;4985794;28;20727;-45
2023/07/10 05:38:26;;;;;;;17.85;13.82;;;;;;;19.43;100.00;101556.28;4986997;28;20204;-45
2023/07/10 05:40:52;;;;;;;16.60;13.32;;;;;;;19.43;100.00;101556.28;4996998;28;20200;-45
2023/07/10 05:43:18;;;;;;;15.52;11.85;;;;;;;19.54;100.00;101559.16;4983936;28;20174;-45
2023/07/10 05:45:44;;;;;;;16.80;11.70;;;;;;;19.61;100.00;101556.91;4982086;28;20211;-44
2023/07/10 05:48:10;;;;;;;13.43;10.95;;;;;;;19.73;100.00;101562.47;4977939;28;20219;-45
2023/07/10 05:50:35;;;;;;;14.70;12.27;;;;;;;19.58;100.00;101563.44;4989891;28;20200;-44
2023/07/10 05:53:01;;;;;;;15.55;12.57;;;;;;;19.55;100.00;101555.50;4987188;28;20173;-45
2023/07/10 05:55:27;;;;;;;16.75;14.20;;;;;;;19.38;100.00;101556.56;4973505;28;20736;-44
2023/07/10 05:57:53;;;;;;;17.77;12.95;;;;;;;19.52;100.00;101571.97;4984870;28;20600;-46
2023/07/10 06:00:19;;;;;;;16.85;14.48;;;;;;;19.36;100.00;101569.38;4989415;28;20172;-44
2023/07/10 06:02:44;;;;;;;17.23;13.45;;;;;;;19.39;100.00;101574.59;4979541;28;20671;-44
2023/07/10 06:05:10;;;;;;;17.70;14.43;;;;;;;19.40;100.00;101576.38;4977525;28;20252;-45
2023/07/10 06:07:35;;;;;;;22.23;15.80;;;;;;;19.35;100.00;101579.38;4986812;28;20192;-46
2023/07/10 06:10:01;;;;;;;22.63;15.00;;;;;;;19.35;100.00;101573.06;4988937;28;20199;-45
2023/07/10 06:12:26;;;;;;;19.30;15.80;;;;;;;19.36;100.00;101572.09;4977941;28;20204;-44
2023/07/10 06:14:51;;;;;;;22.08;17.92;;;;;;;19.38;100.00;101581.03;4977752;28;20206;-45
2023/07/10 06:17:17;;;;;;;20.42;17.08;;;;;;;19.55;100.00;101578.09;4988885;28;20188;-46
2023/07/10 06:19:42;;;;;;;17.13;15.23;;;;;;;19.65;100.00;101567.50;4988747;28;20185;-45
2023/07/10 06:22:11;;;;;;;18.45;14.57;;;;;;;19.86;100.00;101578.00;4983215;28;20554;-44
2023/07/10 06:24:38;;;;;;;17.63;13.82;;;;;;;19.88;100.00;101566.03;4985681;28;20209;-44
2023/07/10 06:27:05;;;;;;;16.45;13.63;;;;;;;19.90;100.00;101565.94;4996946;28;20212;-44
2023/07/10 06:29:31;;;;;;;22.58;15.75;;;;;;;19.59;100.00;101562.47;4991362;28;20277;-44
2023/07/10 06:31:57;;;;;;;17.90;13.38;;;;;;;19.67;100.00;101557.41;4999895;28;20627;-45
2023/07/10 06:34:23;;;;;;;16.40;12.73;;;;;;;19.67;100.00;101565.56;4991017;28;20217;-45
2023/07/10 06:36:48;;;;;;;14.75;11.52;;;;;;;19.72;100.00;101555.31;4993223;28;20202;-44
2023/07/10 06:39:14;;;;;;;15.73;14.05;;;;;;;19.64;100.00;101563.03;4988225;28;20279;-44
2023/07/10 06:41:39;;;;;;;15.55;13.75;;;;;;;19.57;100.00;101553.56;4986244;28;20556;-44
2023/07/10 06:44:10;;;;;;;17.80;13.60;;;;;;;19.60;100.00;101566.94;4995396;28;20343;-44
2023/07/10 06:46:35;;;;;;;16.40;12.93;;;;;;;19.51;100.00;101573.84;4988739;28;20188;-45
2023/07/10 06:49:01;;;;;;;17.05;14.60;;;;;;;19.48;100.00;101573.13;4989015;28;20204;-45
2023/07/10 06:51:26;;;;;;;27.52;16.58;;;;;;;19.20;100.00;101535.97;4983213;28;20178;-46
2023/07/10 06:53:52;;;;;;;25.42;17.25;;;;;;;18.99;100.00;101525.50;4991409;28;20538;-46
2023/07/10 06:56:17;;;;;;;34.50;19.08;;;;;;;18.89;100.00;101536.09;4990808;28;20186;-43
2023/07/10 06:58:42;;;;;;;25.25;14.02;;;;;;;19.01;100.00;101539.00;4984207;28;20189;-45
2023/07/10 07:01:08;;;;;;;24.77;14.82;;;;;;;18.92;100.00;101540.44;4982270;28;20184;-45
2023/07/10 07:03:33;;;;;;;31.27;15.88;;;;;;;18.78;100.00;101541.28;4983218;28;20595;-45
2023/07/10 07:05:59;;;;;;;26.65;12.90;;;;;;;18.94;100.00;101552.94;4992606;28;20216;-45
2023/07/10 07:08:25;;;;;;;23.27;15.30;;;;;;;18.96;100.00;101549.25;4992310;28;20670;-44
2023/07/10 07:10:53;;;;;;;29.23;15.73;;;;;;;19.00;100.00;101554.44;4978917;28;20271;-44
2023/07/10 07:13:20;;;;;;;22.95;14.32;;;;;;;19.10;100.00;101554.72;4987082;28;20185;-45
2023/07/10 07:15:50;;;;;;;24.58;14.43;;;;;;;18.97;100.00;101561.88;4987199;28;20730;-45
2023/07/10 07:18:15;;;;;;;22.42;15.85;;;;;;;18.86;100.00;101568.84;4980315;28;20184;-47
2023/07/10 07:20:41;;;;;;;20.73;16.23;;;;;;;18.83;100.00;101577.19;4981761;28;20190;-45
2023/07/10 07:23:06;;;;;;;16.65;13.80;;;;;;;18.90;100.00;101592.13;4993255;28;20164;-44
2023/07/10 07:25:32;;;;;;;23.83;15.68;;;;;;;18.91;100.00;101593.00;4987702;28;20564;-45
2023/07/10 07:27:59;;;;;;;17.70;14.95;;;;;;;18.89;100.00;101584.97;4982788;28;20228;-45
2023/07/10 07:30:26;;;;;;;22.02;14.90;;;;;;;18.87;100.00;101586.91;4983616;28;20187;-46
2023/07/10 07:32:52;;;;;;;22.33;15.82;;;;;;;18.78;100.00;101583.84;4989543;28;20208;-46
2023/07/10 07:35:18;;;;;;;19.70;15.50;;;;;;;18.73;100.00;101586.81;4989754;28;20276;-44
2023/07/10 07:37:43;;;;;;;18.42;14.93;;;;;;;18.66;100.00;101578.16;4985939;28;20417;-46
2023/07/10 07:40:09;;;;;;;19.30;14.02;;;;;;;18.86;100.00;101587.84;5017788;23;20695;-49
2023/07/10 07:42:35;;;;;;;20.48;14.82;;;;;;;18.86;100.00;101605.97;5018801;28;20204;-49
2023/07/10 07:45:02;;;;;;;24.05;16.35;;;;;;;18.86;100.00;101625.84;5016216;28;20632;-50
2023/07/10 07:47:28;;;;;;;21.83;14.60;;;;;;;18.88;100.00;101631.22;5015154;28;20330;-48
2023/07/10 07:49:53;;;;;;;20.48;14.82;;;;;;;18.79;100.00;101632.63;5017725;28;20193;-48
2023/07/10 07:52:19;;;;;;;22.85;16.08;;;;;;;18.65;100.00;101628.00;5020142;28;20202;-47
2023/07/10 07:54:44;;;;;;;17.48;14.18;;;;;;;18.89;100.00;101627.50;5018169;28;20214;-48
2023/07/10 07:57:10;;;;;;;18.02;16.20;;;;;;;18.85;100.00;101631.41;5021625;28;20238;-49
2023/07/10 07:59:35;;;;;;;19.05;15.38;;;;;;;18.88;100.00;101632.06;5017886;28;20198;-48
2023/07/10 08:02:01;;;;;;;17.88;15.60;;;;;;;18.97;100.00;101648.78;5010692;28;20189;-47
2023/07/10 08:04:26;;;;;;;18.10;16.23;;;;;;;18.96;100.00;101644.31;5012516;28;20210;-49
2023/07/10 08:06:52;;;;;;;18.17;15.15;;;;;;;18.96;100.00;101645.19;5015492;28;20560;-47
2023/07/10 08:09:17;;;;;;;19.95;16.80;;;;;;;18.91;100.00;101648.19;5011353;28;20595;-49
2023/07/10 08:11:43;;;;;;;20.02;15.90;;;;;;;18.82;100.00;101645.16;5011174;28;20194;-49
2023/07/10 08:14:09;;;;;;;23.33;18.13;;;;;;;18.70;100.00;101650.31;5029732;28;20215;-47
2023/07/10 08:16:35;;;;;;;25.92;20.33;;;;;;;18.58;100.00;101644.72;5013572;28;20279;-47
2023/07/10 08:19:00;;;;;;;27.23;23.52;;;;;;;18.55;100.00;101642.22;5013272;28;20184;-48
2023/07/10 08:21:26;;;;;;;24.70;22.17;;;;;;;18.65;100.00;101640.69;5013809;28;20179;-48
2023/07/10 08:23:52;;;;;;;26.38;23.20;;;;;;;18.60;100.00;101643.66;5021433;28;20980;-49
2023/07/10 08:26:17;;;;;;;20.33;18.27;;;;;;;18.71;100.00;101629.47;5017716;28;20207;-49
2023/07/10 08:28:43;;;;;;;25.50;23.08;;;;;;;18.74;100.00;101632.88;5019398;28;20306;-49
2023/07/10 08:31:08;;;;;;;23.40;21.10;;;;;;;18.73;100.00;101632.97;5016472;28;20263;-46
2023/07/10 08:33:35;;;;;;;24.08;21.77;;;;;;;18.87;100.00;101629.44;5016468;28;20191;-46
2023/07/10 08:36:03;;;;;;;24.63;22.00;;;;;;;18.95;100.00;101627.16;5016513;28;20774;-49
2023/07/10 08:38:31;;;;;;;25.38;22.88;;;;;;;18.87;100.00;101638.47;5011996;28;20268;-50
2023/07/10 08:41:04;;;;;;;23.30;21.10;;;;;;;18.93;100.00;101638.13;5016432;28;20258;-50
2023/07/10 08:43:35;;;;;;;22.20;19.88;;;;;;;18.99;100.00;101634.13;5016292;28;20204;-51
2023/07/10 08:46:09;;;;;;;23.80;21.25;;;;;;;18.92;100.00;101649.06;5013782;28;20298;-49
2023/07/10 08:48:38;;;;;;;27.52;20.98;;;;;;;18.95;100.00;101648.88;5016087;28;20578;-48
2023/07/10 08:51:20;;;;;;;20.65;18.77;;;;;;;19.12;100.00;101653.28;5021135;28;20266;-48
2023/07/10 08:54:09;;;;;;;22.17;19.85;;;;;;;19.41;100.00;101640.59;5020514;28;20184;-50
2023/07/10 08:56:42;;;;;;;21.40;19.15;;;;;;;20.12;100.00;101645.16;5015934;28;20188;-48
2023/07/10 08:59:20;;;;;;;19.38;17.35;;;;;;;20.15;100.00;101636.78;5016362;28;20176;-47
2023/07/10 09:01:46;;;;;;;14.38;13.05;;;;;;;20.27;100.00;101650.56;5015548;28;20186;-47
2023/07/10 09:04:15;;;;;;;13.40;12.00;;;;;;;20.07;100.00;101650.03;5015690;28;20888;-48
2023/07/10 09:06:50;;;;;;;12.27;10.55;;;;;;;20.24;100.00;101639.88;5021848;28;20245;-50
2023/07/10 09:09:23;;;;;;;12.50;10.43;;;;;;;20.24;100.00;101631.72;5018030;28;20207;-49
2023/07/10 09:11:51;;;;;;;21.55;19.35;;;;;;;19.98;100.00;101639.75;5021482;28;20318;-48
2023/07/10 09:14:35;;;;;;;8.93;8.15;;;;;;;19.84;100.00;101643.38;5019009;28;20211;-49
2023/07/10 09:17:02;;;;;;;7.95;7.18;;;;;;;19.74;100.00;101637.66;5012499;28;20251;-49
2023/07/10 09:19:30;;;;;;;8.32;6.75;;;;;;;19.81;100.00;101638.13;5013853;28;20200;-48
2023/07/10 09:21:55;;;;;;;6.75;6.15;;;;;;;19.79;100.00;101639.19;5016371;28;20179;-48
2023/07/10 09:24:23;;;;;;;6.15;5.65;;;;;;;19.86;100.00;101644.13;5012224;28;20199;-48
2023/07/10 09:26:49;;;;;;;6.75;6.15;;;;;;;20.42;100.00;101644.09;5012918;28;20223;-46
2023/07/10 09:29:26;;;;;;;6.00;5.30;;;;;;;20.76;100.00;101636.41;5015057;28;20207;-49
2023/07/10 09:32:12;;;;;;;5.97;5.38;;;;;;;20.83;100.00;101635.00;5014992;28;20266;-46
2023/07/10 09:34:44;;;;;;;6.20;5.00;;;;;;;21.10;100.00;101639.53;5013922;28;20507;-47
2023/07/10 09:37:12;;;;;;;5.60;5.05;;;;;;;20.89;100.00;101631.00;5014441;28;20186;-47
2023/07/10 09:39:38;;;;;;;5.00;4.60;;;;;;;20.83;100.00;101629.56;5018258;28;20191;-47
2023/07/10 09:42:05;;;;;;;4.97;4.57;;;;;;;20.88;100.00;101637.41;5013449;28;20635;-48
2023/07/10 09:44:36;;;;;;;6.25;4.00;;;;;;;21.06;100.00;101640.75;5014718;28;20200;-48
2023/07/10 09:47:08;;;;;;;4.00;3.60;;;;;;;21.05;100.00;101633.53;5015070;28;20194;-50
2023/07/10 09:49:40;;;;;;;4.45;3.67;;;;;;;21.06;100.00;101632.56;5017582;28;20211;-46
2023/07/10 09:52:19;;;;;;;3.33;3.13;;;;;;;21.20;100.00;101632.47;5009734;28;20176;-49
2023/07/10 09:54:45;;;;;;;3.80;3.40;;;;;;;21.15;100.00;101627.34;5014992;28;20591;-48
2023/07/10 09:57:14;;;;;;;3.10;2.80;;;;;;;20.68;100.00;101636.94;5019118;28;20169;-47
2023/07/10 09:59:50;;;;;;;2.75;2.55;;;;;;;20.70;100.00;101640.41;5019095;28;20176;-48
2023/07/10 10:02:27;;;;;;;2.60;2.40;;;;;;;;;;5023349;28;20195;-48
2023/07/10 10:05:17;;;;;;;2.65;2.42;;;;;;;20.88;100.00;101624.69;5020194;28;20215;-51
2023/07/10 10:07:45;;;;;;;2.08;1.98;;;;;;;20.66;100.00;101636.19;5023010;28;20206;-50
2023/07/10 10:10:29;;;;;;;2.63;2.40;;;;;;;20.76;100.00;101636.41;5018568;28;20219;-49
2023/07/10 10:13:18;;;;;;;2.92;2.40;;;;;;;20.65;100.00;101628.97;5018354;28;20209;-51
2023/07/10 10:16:03;;;;;;;2.40;2.20;;;;;;;20.67;100.00;101640.63;5019537;28;20219;-49
2023/07/10 10:18:50;;;;;;;2.20;2.00;;;;;;;21.27;100.00;101639.22;5018171;28;20270;-50
2023/07/10 10:21:18;;;;;;;2.65;2.38;;;;;;;21.60;100.00;101633.28;5021031;28;20680;-50
2023/07/10 10:23:46;;;;;;;2.78;2.30;;;;;;;21.52;100.00;101638.38;5020974;28;20603;-49
2023/07/10 10:26:23;;;;;;;2.72;2.53;;;;;;;22.03;100.00;101626.50;5019453;28;20188;-50
2023/07/10 10:29:10;;;;;;;3.30;1.95;;;;;;;22.68;100.00;101627.16;5019169;28;20199;-47
2023/07/10 10:31:41;;;;;;;3.45;2.45;;;;;;;22.18;100.00;101622.66;5014037;28;20225;-47
2023/07/10 10:34:16;;;;;;;3.78;2.30;;;;;;;22.58;100.00;101621.53;5014857;28;20187;-49
2023/07/10 10:36:59;;;;;;;2.88;2.53;;;;;;;22.38;100.00;101620.31;5021714;28;20554;-48
2023/07/10 10:39:35;;;;;;;4.60;2.40;;;;;;;21.74;100.00;101612.31;5019481;28;20259;-48
2023/07/10 10:42:06;;;;;;;2.50;2.30;;;;;;;21.57;100.00;101617.09;5016346;28;20171;-49
2023/07/10 10:44:54;;;;;;;2.90;2.40;;;;;;;22.05;100.00;101616.34;5017374;28;20652;-46
2023/07/10 10:47:45;;;;;;;5.45;2.63;;;;;;;22.78;100.00;101620.88;5018461;28;20191;-50
2023/07/10 10:50:39;;;;;;;4.07;2.67;;;;;;;22.83;100.00;101615.06;5015485;28;20194;-47
2023/07/10 10:53:44;;;;;;;2.45;2.20;;;;;;;23.02;100.00;101614.50;5015925;28;20199;-48
2023/07/10 10:56:21;;;;;;;2.85;2.30;;;;;;;22.81;100.00;101615.16;5022529;28;20756;-49
2023/07/10 10:58:58;;;;;;;3.17;2.30;;;;;;;23.01;97.47;101613.63;5020208;28;20172;-51
2023/07/10 11:01:27;;;;;;;2.60;2.10;;;;;;;23.44;97.67;101615.72;5018651;28;20246;-50
2023/07/10 11:04:15;;;;;;;2.88;2.20;;;;;;;22.90;95.17;101613.56;5018134;28;20210;-46
2023/07/10 11:07:07;;;;;;;2.30;2.10;;;;;;;23.21;95.29;101616.66;5014736;28;20786;-49
2023/07/10 11:09:39;;;;;;;2.97;2.13;;;;;;;22.96;93.98;101613.09;5019687;28;20176;-49
2023/07/10 11:12:13;;;;;;;2.97;2.30;;;;;;;22.45;94.02;101620.72;5018497;28;20479;-47
2023/07/10 11:14:39;;;;;;;2.58;2.33;;;;;;;22.86;96.44;101622.13;5019559;28;20692;-48
2023/07/10 11:17:07;;;;;;;4.32;2.35;;;;;;;22.72;95.51;101624.06;5019263;28;20187;-50